Time;durP1;ratioP1;P1;durP2;ratioP2;P2;SDS_P1;SDS_P2;PMS_P1;PMS_P2;Temp;Humidity;BMP_temperature;BMP_pressure;BME280_temperature;BME280_humidity;BME280_pressure;Samples;Min_cycle;Max_cycle;Signal;HPM_P1;HPM_P2
2021/09/17 00:01:15;;;;;;;16.73;9.60;;;;;;;;;;5022750;28;20536;-63
2021/09/17 00:03:40;;;;;;;17.30;9.52;;;;;;;;;;5023303;28;20091;-64
2021/09/17 00:06:06;;;;;;;16.95;9.05;;;;;;;;;;5023813;28;20553;-63
2021/09/17 00:08:31;;;;;;;16.65;8.93;;;;;;;;;;5020437;28;20063;-63
2021/09/17 00:10:56;;;;;;;15.65;8.90;;;;;;;;;;5019176;28;20359;-63
2021/09/17 00:13:21;;;;;;;19.05;9.63;;;;;;;;;;5017777;28;20030;-63
2021/09/17 00:15:46;;;;;;;17.13;9.68;;;;;;;;;;5018977;28;20022;-63
2021/09/17 00:18:12;;;;;;;19.93;9.90;;;;;;;;;;5024862;28;20026;-64
2021/09/17 00:20:37;;;;;;;17.73;9.43;;;;;;;;;;5016496;28;20598;-63
2021/09/17 00:23:02;;;;;;;16.48;9.23;;;;;;;;;;5025587;28;20029;-63
2021/09/17 00:25:27;;;;;;;16.67;9.95;;;;;;;;;;5026042;28;20022;-63
2021/09/17 00:27:52;;;;;;;17.30;9.25;;;;;;;;;;5025778;28;20167;-64
2021/09/17 00:30:18;;;;;;;17.50;9.77;;;;;;;;;;5019618;28;20044;-65
2021/09/17 00:32:44;;;;;;;18.10;9.38;;;;;;;;;;5023613;28;20092;-64
2021/09/17 00:35:09;;;;;;;19.45;10.80;;;;;;;;;;5022095;28;20060;-63
2021/09/17 00:37:34;;;;;;;18.38;10.15;;;;;;;;;;5022524;28;20025;-63
2021/09/17 00:39:59;;;;;;;18.80;10.18;;;;;;;;;;5026895;28;20114;-63
2021/09/17 00:42:25;;;;;;;15.95;9.23;;;;;;;;;;5018372;28;20049;-64
2021/09/17 00:44:50;;;;;;;17.50;9.23;;;;;;;;;;5020982;28;20040;-63
2021/09/17 00:47:15;;;;;;;18.80;9.50;;;;;;;;;;5026416;28;20112;-64
2021/09/17 00:49:40;;;;;;;17.95;10.27;;;;;;;;;;5031765;28;20470;-63
2021/09/17 00:52:06;;;;;;;20.45;10.77;;;;;;;;;;5024773;28;20412;-63
2021/09/17 00:54:34;;;;;;;18.90;9.85;;;;;;;;;;5026081;28;20369;-63
2021/09/17 00:56:59;;;;;;;21.33;11.05;;;;;;;;;;5028406;28;20026;-63
2021/09/17 00:59:24;;;;;;;22.48;10.93;;;;;;;;;;5022334;28;20377;-63
2021/09/17 01:01:49;;;;;;;21.98;10.07;;;;;;;;;;5024638;28;20036;-63
2021/09/17 01:04:15;;;;;;;20.05;10.20;;;;;;;;;;5026622;28;20041;-63
2021/09/17 01:06:40;;;;;;;18.58;9.57;;;;;;;;;;5019869;28;20412;-64
2021/09/17 01:09:06;;;;;;;18.08;10.00;;;;;;;;;;5025952;28;20030;-64
2021/09/17 01:11:31;;;;;;;21.45;9.68;;;;;;;;;;5027951;28;20469;-63
2021/09/17 01:13:57;;;;;;;21.67;9.52;;;;;;;;;;5023674;28;20069;-63
2021/09/17 01:16:22;;;;;;;16.75;9.20;;;;;;;;;;5028483;28;20095;-63
2021/09/17 01:18:50;;;;;;;19.67;10.68;;;;;;;;;;5020317;28;20116;-63
2021/09/17 01:21:15;;;;;;;21.90;9.68;;;;;;;;;;5027727;28;20088;-62
2021/09/17 01:23:40;;;;;;;19.95;10.68;;;;;;;;;;5028098;28;20120;-63
2021/09/17 01:26:05;;;;;;;21.20;10.67;;;;;;;;;;5028722;28;20044;-63
2021/09/17 01:28:32;;;;;;;22.88;10.27;;;;;;;;;;5028362;28;20268;-63
2021/09/17 01:30:57;;;;;;;18.75;10.38;;;;;;;;;;5024118;28;20034;-64
2021/09/17 01:33:24;;;;;;;20.42;9.57;;;;;;;;;;5026974;28;20052;-63
2021/09/17 01:36:03;;;;;;;19.25;10.15;;;;;;;;;;5027273;28;20105;-63
2021/09/17 01:38:28;;;;;;;20.88;9.77;;;;;;;;;;5028222;28;20029;-64
2021/09/17 01:40:54;;;;;;;21.52;9.95;;;;;;;;;;5027502;28;20037;-64
2021/09/17 01:43:19;;;;;;;19.50;10.05;;;;;;;;;;5024181;28;20097;-64
2021/09/17 01:45:44;;;;;;;18.52;9.80;;;;;;;;;;5023806;28;20053;-63
2021/09/17 01:48:09;;;;;;;17.23;8.67;;;;;;;;;;5024245;28;20853;-63
2021/09/17 01:50:35;;;;;;;18.35;9.85;;;;;;;;;;5024355;28;20280;-63
2021/09/17 01:53:00;;;;;;;19.08;10.73;;;;;;;;;;5021276;28;20882;-64
2021/09/17 01:55:25;;;;;;;18.00;9.87;;;;;;;;;;5020729;28;20424;-63
2021/09/17 01:57:51;;;;;;;17.13;9.93;;;;;;;;;;5027573;28;20330;-63
2021/09/17 02:00:16;;;;;;;18.10;9.45;;;;;;;;;;5029977;28;20013;-63
2021/09/17 02:02:41;;;;;;;18.25;9.93;;;;;;;;;;5029959;28;20056;-64
2021/09/17 02:05:07;;;;;;;17.17;9.60;;;;;;;;;;5029083;28;20087;-64
2021/09/17 02:07:32;;;;;;;16.17;8.80;;;;;;;;;;5020911;28;20050;-64
2021/09/17 02:09:57;;;;;;;16.27;9.02;;;;;;;;;;5029512;28;20068;-65
2021/09/17 02:12:22;;;;;;;17.05;8.15;;;;;;;;;;5021842;28;20409;-63
2021/09/17 02:14:48;;;;;;;15.98;8.98;;;;;;;;;;5021934;28;20038;-64
2021/09/17 02:17:13;;;;;;;16.10;8.57;;;;;;;;;;5022238;28;20022;-63
2021/09/17 02:19:38;;;;;;;17.40;9.43;;;;;;;;;;5022006;28;20082;-63
2021/09/17 02:22:03;;;;;;;17.27;9.43;;;;;;;;;;5029405;28;20026;-63
2021/09/17 02:24:28;;;;;;;16.08;8.77;;;;;;;;;;5025524;28;20400;-63
2021/09/17 02:26:53;;;;;;;17.13;8.63;;;;;;;;;;5038749;28;20017;-63
2021/09/17 02:29:19;;;;;;;17.08;8.80;;;;;;;;;;5022631;28;20033;-64
2021/09/17 02:31:44;;;;;;;15.50;8.43;;;;;;;;;;5026245;28;20025;-64
2021/09/17 02:34:09;;;;;;;12.63;7.95;;;;;;;;;;5020033;28;20041;-64
2021/09/17 02:36:34;;;;;;;15.73;8.93;;;;;;;;;;5027087;28;20032;-63
2021/09/17 02:38:59;;;;;;;19.95;8.88;;;;;;;;;;5021679;28;20101;-65
2021/09/17 02:41:25;;;;;;;18.52;8.68;;;;;;;;;;5025627;28;20077;-64
2021/09/17 02:43:50;;;;;;;18.35;9.05;;;;;;;;;;5020610;28;20060;-63
2021/09/17 02:46:15;;;;;;;16.00;8.30;;;;;;;;;;5025963;28;20461;-63
2021/09/17 02:48:43;;;;;;;17.00;8.30;;;;;;;;;;5021384;28;20021;-63
2021/09/17 02:51:08;;;;;;;18.42;7.93;;;;;;;;;;5029302;28;20028;-63
2021/09/17 02:53:33;;;;;;;17.40;8.30;;;;;;;;;;5028575;28;20037;-62
2021/09/17 02:55:58;;;;;;;16.53;8.40;;;;;;;;;;5029420;28;20351;-64
2021/09/17 02:58:23;;;;;;;16.30;8.50;;;;;;;;;;5017285;28;20799;-63
2021/09/17 03:00:48;;;;;;;17.90;8.60;;;;;;;;;;5020934;28;20026;-63
2021/09/17 03:03:16;;;;;;;16.40;8.53;;;;;;;;;;5022934;28;20284;-63
2021/09/17 03:05:41;;;;;;;17.75;8.70;;;;;;;;;;5021248;28;20283;-63
2021/09/17 03:08:06;;;;;;;15.48;8.57;;;;;;;;;;5026009;28;20052;-63
2021/09/17 03:10:31;;;;;;;14.95;8.57;;;;;;;;;;5022222;28;20144;-63
2021/09/17 03:12:58;;;;;;;17.05;9.02;;;;;;;;;;5026527;28;20507;-62
2021/09/17 03:15:23;;;;;;;15.32;8.65;;;;;;;;;;5025043;28;20026;-63
2021/09/17 03:17:48;;;;;;;17.63;8.93;;;;;;;;;;5020132;28;20036;-63
2021/09/17 03:20:14;;;;;;;17.10;8.38;;;;;;;;;;5023122;28;20022;-64
2021/09/17 03:22:39;;;;;;;15.38;8.00;;;;;;;;;;5023241;28;20045;-63
2021/09/17 03:25:04;;;;;;;15.57;8.63;;;;;;;;;;5023958;28;20025;-62
2021/09/17 03:27:30;;;;;;;16.63;8.73;;;;;;;;;;5036150;28;20035;-63
2021/09/17 03:29:55;;;;;;;17.65;9.48;;;;;;;;;;5019093;28;20104;-63
2021/09/17 03:32:20;;;;;;;18.80;8.93;;;;;;;;;;5018675;28;20396;-63
2021/09/17 03:34:46;;;;;;;15.55;8.73;;;;;;;;;;5025282;28;20087;-63
2021/09/17 03:37:11;;;;;;;15.05;8.88;;;;;;;;;;5022855;28;20022;-63
2021/09/17 03:39:36;;;;;;;17.42;8.20;;;;;;;;;;5025559;28;20022;-63
2021/09/17 03:42:02;;;;;;;15.35;8.90;;;;;;;;;;5020847;28;20615;-64
2021/09/17 03:44:27;;;;;;;15.85;8.75;;;;;;;;;;5022972;28;20032;-63
2021/09/17 03:46:53;;;;;;;17.52;7.97;;;;;;;;;;5023087;28;20071;-64
2021/09/17 03:49:19;;;;;;;15.57;8.75;;;;;;;;;;5023455;28;20067;-62
2021/09/17 03:51:44;;;;;;;16.60;7.80;;;;;;;;;;5021548;28;20033;-63
2021/09/17 03:54:09;;;;;;;14.70;8.15;;;;;;;;;;5026102;28;20152;-64
2021/09/17 03:56:34;;;;;;;12.85;7.15;;;;;;;;;;5025642;28;20460;-63
2021/09/17 03:58:59;;;;;;;14.87;8.93;;;;;;;;;;5024997;28;20125;-63
2021/09/17 04:01:25;;;;;;;14.27;8.52;;;;;;;;;;5020078;28;20277;-64
2021/09/17 04:03:50;;;;;;;12.63;8.10;;;;;;;;;;5026367;28;20018;-63
2021/09/17 04:06:15;;;;;;;13.83;7.83;;;;;;;;;;5022012;28;20033;-64
2021/09/17 04:08:40;;;;;;;14.77;8.52;;;;;;;;;;5022455;28;20303;-63
2021/09/17 04:11:05;;;;;;;17.83;8.90;;;;;;;;;;5018534;28;20369;-63
2021/09/17 04:13:30;;;;;;;13.90;8.20;;;;;;;;;;5026645;28;20063;-64
2021/09/17 04:15:56;;;;;;;15.53;8.10;;;;;;;;;;5020017;28;20025;-63
2021/09/17 04:18:21;;;;;;;16.30;7.85;;;;;;;;;;5025004;28;20414;-63
2021/09/17 04:20:46;;;;;;;15.10;8.13;;;;;;;;;;5024486;28;20404;-64
2021/09/17 04:23:11;;;;;;;13.95;8.13;;;;;;;;;;5023576;28;20375;-63
2021/09/17 04:25:36;;;;;;;15.93;8.18;;;;;;;;;;5022025;28;20105;-64
2021/09/17 04:28:01;;;;;;;17.95;8.98;;;;;;;;;;5021035;28;20527;-63
2021/09/17 04:30:27;;;;;;;14.45;7.80;;;;;;;;;;5027154;28;20024;-63
2021/09/17 04:32:52;;;;;;;16.27;8.70;;;;;;;;;;5026909;28;20490;-63
2021/09/17 04:35:17;;;;;;;16.17;8.98;;;;;;;;;;5019919;28;20106;-63
2021/09/17 04:37:43;;;;;;;18.33;9.05;;;;;;;;;;5026395;28;20029;-64
2021/09/17 04:40:09;;;;;;;16.67;8.75;;;;;;;;;;5023476;28;20017;-64
2021/09/17 04:42:34;;;;;;;16.33;8.07;;;;;;;;;;5020930;28;20053;-65
2021/09/17 04:45:00;;;;;;;16.42;9.23;;;;;;;;;;5022408;28;20018;-64
2021/09/17 04:47:25;;;;;;;18.13;8.70;;;;;;;;;;5025404;28;20500;-64
2021/09/17 04:49:50;;;;;;;17.10;9.60;;;;;;;;;;5027252;28;20284;-63
2021/09/17 04:52:16;;;;;;;18.20;9.38;;;;;;;;;;5026747;28;20359;-62
2021/09/17 04:54:41;;;;;;;17.48;9.02;;;;;;;;;;5016300;28;20036;-63
2021/09/17 04:57:06;;;;;;;16.88;9.43;;;;;;;;;;5023215;28;20066;-63
2021/09/17 04:59:32;;;;;;;15.90;9.10;;;;;;;;;;5023751;28;20029;-61
2021/09/17 05:01:57;;;;;;;16.50;8.77;;;;;;;;;;5026495;28;20491;-60
2021/09/17 05:04:22;;;;;;;17.73;9.13;;;;;;;;;;5022381;28;20195;-60
2021/09/17 05:06:47;;;;;;;17.52;9.15;;;;;;;;;;5026053;28;20280;-61
2021/09/17 05:09:12;;;;;;;17.25;8.93;;;;;;;;;;5026227;28;20052;-61
2021/09/17 05:11:37;;;;;;;15.65;8.50;;;;;;;;;;5024612;28;20021;-62
2021/09/17 05:14:03;;;;;;;14.33;8.70;;;;;;;;;;5025000;28;20438;-60
2021/09/17 05:16:31;;;;;;;18.35;8.75;;;;;;;;;;5017193;28;20272;-60
2021/09/17 05:18:57;;;;;;;17.07;8.87;;;;;;;;;;5024727;28;20033;-61
2021/09/17 05:21:22;;;;;;;17.10;8.37;;;;;;;;;;5017216;28;20397;-61
2021/09/17 05:23:47;;;;;;;16.85;8.68;;;;;;;;;;5025600;28;20299;-62
2021/09/17 05:26:12;;;;;;;16.20;9.15;;;;;;;;;;5018555;28;20487;-61
2021/09/17 05:28:37;;;;;;;16.15;8.85;;;;;;;;;;5026382;28;20027;-61
2021/09/17 05:31:02;;;;;;;15.55;8.90;;;;;;;;;;5026391;28;20017;-61
2021/09/17 05:33:28;;;;;;;17.02;9.27;;;;;;;;;;5024549;28;20061;-61
2021/09/17 05:35:53;;;;;;;16.77;9.15;;;;;;;;;;5021907;28;20057;-60
2021/09/17 05:38:18;;;;;;;16.77;8.55;;;;;;;;;;5030254;28;20025;-61
2021/09/17 05:40:44;;;;;;;18.73;9.03;;;;;;;;;;5031186;28;20082;-62
2021/09/17 05:43:09;;;;;;;18.20;9.38;;;;;;;;;;5030225;28;20300;-62
2021/09/17 05:45:35;;;;;;;15.68;8.77;;;;;;;;;;5024774;28;20032;-62
2021/09/17 05:48:01;;;;;;;15.70;9.00;;;;;;;;;;5029409;28;20497;-61
2021/09/17 05:50:26;;;;;;;15.50;8.63;;;;;;;;;;5029047;28;20044;-61
2021/09/17 05:52:51;;;;;;;15.75;8.57;;;;;;;;;;5023618;28;20264;-60
2021/09/17 05:55:16;;;;;;;15.43;8.55;;;;;;;;;;5030728;28;20112;-61
2021/09/17 05:57:42;;;;;;;16.73;9.32;;;;;;;;;;5025623;28;20022;-61
2021/09/17 06:00:08;;;;;;;16.20;8.65;;;;;;;;;;5020385;28;20022;-61
2021/09/17 06:02:33;;;;;;;17.30;8.77;;;;;;;;;;5023500;28;20032;-60
2021/09/17 06:04:58;;;;;;;15.73;8.80;;;;;;;;;;5022676;28;20025;-62
2021/09/17 06:07:23;;;;;;;14.07;8.57;;;;;;;;;;5026341;28;20268;-61
2021/09/17 06:09:49;;;;;;;15.02;8.23;;;;;;;;;;5024330;28;20621;-62
2021/09/17 06:12:14;;;;;;;14.57;8.13;;;;;;;;;;5023078;28;20123;-61
2021/09/17 06:14:39;;;;;;;16.23;9.20;;;;;;;;;;5027772;28;20120;-61
2021/09/17 06:17:04;;;;;;;16.55;8.88;;;;;;;;;;5024376;28;20009;-61
2021/09/17 06:19:29;;;;;;;15.73;8.63;;;;;;;;;;5027530;28;20018;-61
2021/09/17 06:21:55;;;;;;;16.90;8.15;;;;;;;;;;5029894;28;20083;-61
2021/09/17 06:24:20;;;;;;;14.52;7.88;;;;;;;;;;5030609;28;20036;-61
2021/09/17 06:26:46;;;;;;;17.13;8.57;;;;;;;;;;5030788;28;20103;-62
2021/09/17 06:29:11;;;;;;;15.00;8.70;;;;;;;;;;5030263;28;20032;-62
2021/09/17 06:31:36;;;;;;;14.73;8.85;;;;;;;;;;5028455;28;20053;-62
2021/09/17 06:34:02;;;;;;;14.05;8.40;;;;;;;;;;5030324;28;20041;-62
2021/09/17 06:36:28;;;;;;;15.20;9.00;;;;;;;;;;5030408;28;20366;-62
2021/09/17 06:38:55;;;;;;;16.35;8.60;;;;;;;;;;5029667;28;20047;-62
2021/09/17 06:41:20;;;;;;;15.75;8.63;;;;;;;;;;5027194;28;20037;-61
2021/09/17 06:43:45;;;;;;;17.70;8.90;;;;;;;;;;5029020;28;20045;-62
2021/09/17 06:46:10;;;;;;;12.90;7.90;;;;;;;;;;5030169;28;20252;-61
2021/09/17 06:48:35;;;;;;;17.48;9.15;;;;;;;;;;5029705;28;20657;-62
2021/09/17 06:51:01;;;;;;;16.90;8.57;;;;;;;;;;5029807;28;20021;-61
2021/09/17 06:53:26;;;;;;;15.10;8.02;;;;;;;;;;5020866;28;20296;-62
2021/09/17 06:55:51;;;;;;;14.63;8.57;;;;;;;;;;5029536;28;20116;-62
2021/09/17 06:58:17;;;;;;;15.07;8.73;;;;;;;;;;5029548;28;20389;-63
2021/09/17 07:00:42;;;;;;;15.38;8.45;;;;;;;;;;5045144;28;20268;-62
2021/09/17 07:03:07;;;;;;;14.73;9.30;;;;;;;;;;5026234;28;20423;-62
2021/09/17 07:05:33;;;;;;;16.80;8.25;;;;;;;;;;5029703;28;20259;-62
2021/09/17 07:08:08;;;;;;;12.20;7.90;;;;;;;;;;5029328;28;20025;-62
2021/09/17 07:10:35;;;;;;;13.43;8.80;;;;;;;;;;5029627;28;20500;-62
2021/09/17 07:13:00;;;;;;;14.63;8.50;;;;;;;;;;5028643;28;20037;-62
2021/09/17 07:15:25;;;;;;;14.82;8.60;;;;;;;;;;5028141;28;20045;-62
2021/09/17 07:17:51;;;;;;;17.52;8.85;;;;;;;;;;5029343;28;20044;-62
2021/09/17 07:20:16;;;;;;;14.18;8.10;;;;;;;;;;5028997;28;20036;-62
2021/09/17 07:22:42;;;;;;;13.73;8.38;;;;;;;;;;5029010;28;20075;-61
2021/09/17 07:25:08;;;;;;;15.90;8.63;;;;;;;;;;5025672;28;20476;-62
2021/09/17 07:27:33;;;;;;;15.18;8.35;;;;;;;;;;5029450;28;20021;-62
2021/09/17 07:29:58;;;;;;;14.18;8.48;;;;;;;;;;5029730;28;20334;-62
2021/09/17 07:32:23;;;;;;;16.17;8.23;;;;;;;;;;5028949;28;20369;-62
2021/09/17 07:34:49;;;;;;;14.60;8.48;;;;;;;;;;5025361;28;20042;-62
2021/09/17 07:37:14;;;;;;;15.65;8.70;;;;;;;;;;5027995;28;20401;-62
2021/09/17 07:39:39;;;;;;;14.20;7.53;;;;;;;;;;5029072;28;20086;-62
2021/09/17 07:42:04;;;;;;;14.25;9.13;;;;;;;;;;5028845;28;20046;-62
2021/09/17 07:44:31;;;;;;;12.43;7.85;;;;;;;;;;5029128;28;20025;-63
2021/09/17 07:46:57;;;;;;;13.93;8.13;;;;;;;;;;5020654;28;20497;-62
2021/09/17 07:49:22;;;;;;;15.57;8.82;;;;;;;;;;5028830;28;20036;-62
2021/09/17 07:51:47;;;;;;;15.30;8.27;;;;;;;;;;5044410;28;20029;-62
2021/09/17 07:54:12;;;;;;;12.57;7.70;;;;;;;;;;5028895;28;20307;-62
2021/09/17 07:56:37;;;;;;;15.68;8.27;;;;;;;;;;5026921;28;20013;-62
2021/09/17 07:59:02;;;;;;;13.82;7.50;;;;;;;;;;5028500;28;20284;-62
2021/09/17 08:01:28;;;;;;;14.85;8.85;;;;;;;;;;5040264;28;20044;-62
2021/09/17 08:03:53;;;;;;;12.52;7.00;;;;;;;;;;5028779;28;20419;-63
2021/09/17 08:06:19;;;;;;;11.18;6.47;;;;;;;;;;5028298;28;20029;-62
2021/09/17 08:08:45;;;;;;;11.43;7.20;;;;;;;;;;5028398;28;20068;-62
2021/09/17 08:11:10;;;;;;;9.63;6.32;;;;;;;;;;5028913;28;20435;-62
2021/09/17 08:13:35;;;;;;;10.25;6.65;;;;;;;;;;5028449;28;20579;-62
2021/09/17 08:16:02;;;;;;;11.70;7.00;;;;;;;;;;5028802;28;20380;-62
2021/09/17 08:18:27;;;;;;;13.38;7.55;;;;;;;;;;5022986;28;20269;-61
2021/09/17 08:20:57;;;;;;;13.80;7.28;;;;;;;;;;5028420;28;20387;-63
2021/09/17 08:23:22;;;;;;;12.70;7.50;;;;;;;;;;5028725;28;20080;-61
2021/09/17 08:25:50;;;;;;;10.90;7.03;;;;;;;;;;5043579;28;20049;-62
2021/09/17 08:28:15;;;;;;;10.20;5.97;;;;;;;;;;5026593;28;20346;-62
2021/09/17 08:30:40;;;;;;;9.90;6.97;;;;;;;;;;5028333;28;20433;-63
2021/09/17 08:33:05;;;;;;;12.90;6.55;;;;;;;;;;5028218;28;20260;-63
2021/09/17 08:35:31;;;;;;;10.73;5.97;;;;;;;;;;5028465;28;20024;-62
2021/09/17 08:37:56;;;;;;;10.13;5.40;;;;;;;;;;5028290;28;20025;-62
2021/09/17 08:40:21;;;;;;;9.20;4.67;;;;;;;;;;5022449;28;20379;-61
2021/09/17 08:42:46;;;;;;;10.05;5.20;;;;;;;;;;5028072;28;20585;-62
2021/09/17 08:45:12;;;;;;;7.90;5.55;;;;;;;;;;5028315;28;20021;-62
2021/09/17 08:47:37;;;;;;;9.65;5.13;;;;;;;;;;5028153;28;20109;-62
2021/09/17 08:50:02;;;;;;;9.15;5.40;;;;;;;;;;5028206;28;20030;-62
2021/09/17 08:52:27;;;;;;;9.65;5.50;;;;;;;;;;5027763;28;20026;-62
2021/09/17 08:54:53;;;;;;;8.47;5.33;;;;;;;;;;5028231;28;20096;-62
2021/09/17 08:57:18;;;;;;;10.75;5.25;;;;;;;;;;5028097;28;20268;-61
2021/09/17 08:59:43;;;;;;;8.90;5.43;;;;;;;;;;5028271;28;20029;-61
2021/09/17 09:02:18;;;;;;;8.90;4.90;;;;;;;;;;5021103;28;20256;-62
2021/09/17 09:04:53;;;;;;;9.15;5.45;;;;;;;;;;5031657;28;20022;-62
2021/09/17 09:07:25;;;;;;;7.18;4.82;;;;;;;;;;5032116;28;20014;-61
2021/09/17 09:09:50;;;;;;;7.00;4.70;;;;;;;;;;5031734;28;20083;-61
2021/09/17 09:12:17;;;;;;;10.07;4.50;;;;;;;;;;5024419;28;20030;-62
2021/09/17 09:14:42;;;;;;;7.35;4.97;;;;;;;;;;5031933;28;20073;-61
2021/09/17 09:17:08;;;;;;;9.57;5.38;;;;;;;;;;5031910;28;20052;-61
2021/09/17 09:19:35;;;;;;;8.07;5.50;;;;;;;;;;5031306;28;20061;-62
2021/09/17 09:22:03;;;;;;;7.07;4.78;;;;;;;;;;5031661;28;20397;-62
2021/09/17 09:24:28;;;;;;;8.20;4.90;;;;;;;;;;5031696;28;20022;-62
2021/09/17 09:27:07;;;;;;;6.72;4.25;;;;;;;;;;5031695;28;20030;-62
2021/09/17 09:29:32;;;;;;;7.30;4.40;;;;;;;;;;5032029;28;20017;-62
2021/09/17 09:31:57;;;;;;;8.50;4.75;;;;;;;;;;5028685;28;20044;-62
2021/09/17 09:34:43;;;;;;;6.93;4.87;;;;;;;;;;5026775;28;20460;-61
2021/09/17 09:37:10;;;;;;;13.25;5.68;;;;;;;;;;5031424;28;20283;-61
2021/09/17 09:40:07;;;;;;;8.73;4.93;;;;;;;;;;5031537;28;20034;-62
2021/09/17 09:42:35;;;;;;;7.78;5.20;;;;;;;;;;5029102;28;20049;-61
2021/09/17 09:45:11;;;;;;;6.93;5.03;;;;;;;;;;5047831;28;20047;-62
2021/09/17 09:47:38;;;;;;;11.18;5.93;;;;;;;;;;5039221;28;20071;-62
2021/09/17 09:50:07;;;;;;;8.13;5.15;;;;;;;;;;5028989;28;20017;-62
2021/09/17 09:52:32;;;;;;;;;;;;;;;;;;5037790;28;20052;-62
2021/09/17 09:54:58;;;;;;;8.27;4.32;;;;;;;;;;5037260;28;19921;-62
2021/09/17 09:57:24;;;;;;;9.37;4.67;;;;;;;;;;5028808;28;20029;-62
2021/09/17 09:59:51;;;;;;;7.15;4.43;;;;;;;;;;5035963;28;20476;-62
2021/09/17 10:02:16;;;;;;;7.25;5.35;;;;;;;;;;5047759;28;20496;-62
2021/09/17 10:04:42;;;;;;;5.38;3.90;;;;;;;;;;5038140;28;20076;-62
2021/09/17 10:07:08;;;;;;;7.43;4.60;;;;;;;;;;5038070;28;20090;-62
2021/09/17 10:09:36;;;;;;;5.70;3.45;;;;;;;;;;5034603;28;20026;-62
2021/09/17 10:12:01;;;;;;;8.65;5.43;;;;;;;;;;5041874;28;20052;-61
2021/09/17 10:14:27;;;;;;;6.22;3.78;;;;;;;;;;5026346;28;20026;-62
2021/09/17 10:16:53;;;;;;;4.20;3.03;;;;;;;;;;5047066;28;20057;-62
2021/09/17 10:19:19;;;;;;;5.95;3.42;;;;;;;;;;5031146;28;20163;-62
2021/09/17 10:21:49;;;;;;;5.85;3.47;;;;;;;;;;5030835;28;20205;-62
2021/09/17 10:24:40;;;;;;;5.32;3.22;;;;;;;;;;5030718;28;20034;-62
2021/09/17 10:27:08;;;;;;;5.95;3.33;;;;;;;;;;5027615;28;20163;-61
2021/09/17 10:29:33;;;;;;;4.53;2.95;;;;;;;;;;5030973;28;20365;-62
2021/09/17 10:32:02;;;;;;;5.97;2.78;;;;;;;;;;5030419;28;20036;-61
2021/09/17 10:34:28;;;;;;;6.72;3.60;;;;;;;;;;5030495;28;20034;-61
2021/09/17 10:36:53;;;;;;;6.32;3.25;;;;;;;;;;5028788;28;20061;-62
2021/09/17 10:39:19;;;;;;;4.22;2.25;;;;;;;;;;5030027;28;20025;-62
2021/09/17 10:42:10;;;;;;;5.28;2.67;;;;;;;;;;5030541;28;20560;-61
2021/09/17 10:44:54;;;;;;;4.05;2.00;;;;;;;;;;5031009;28;20035;-62
2021/09/17 10:47:37;;;;;;;2.53;1.65;;;;;;;;;;5029170;28;20091;-62
2021/09/17 10:50:04;;;;;;;2.67;1.58;;;;;;;;;;5030215;28;20055;-61
2021/09/17 10:52:48;;;;;;;1.75;1.30;;;;;;;;;;5029775;28;20098;-61
2021/09/17 10:55:32;;;;;;;3.53;1.73;;;;;;;;;;5029915;28;20038;-61
2021/09/17 10:58:15;;;;;;;3.05;1.45;;;;;;;;;;5029442;28;20573;-61
2021/09/17 11:00:52;;;;;;;1.45;1.23;;;;;;;;;;5029783;28;20465;-62
2021/09/17 11:03:39;;;;;;;1.70;1.10;;;;;;;;;;5029824;28;20358;-60
2021/09/17 11:08:45;;;;;;;2.40;1.77;;;;;;;;;;5029626;28;20068;-61
2021/09/17 11:11:23;;;;;;;3.83;1.63;;;;;;;;;;5029656;28;20476;-62
2021/09/17 11:13:49;;;;;;;3.17;1.50;;;;;;;;;;5029618;28;20409;-60
2021/09/17 11:16:18;;;;;;;2.85;1.75;;;;;;;;;;5029779;28;20056;-62
2021/09/17 11:18:50;;;;;;;3.30;1.80;;;;;;;;;;5027774;28;20021;-61
2021/09/17 11:21:16;;;;;;;3.30;2.00;;;;;;;;;;5029639;28;20492;-62
2021/09/17 11:23:43;;;;;;;3.30;1.88;;;;;;;;;;5029592;28;20099;-62
2021/09/17 11:26:08;;;;;;;2.08;1.10;;;;;;;;;;5029037;28;20191;-61
2021/09/17 11:28:33;;;;;;;3.67;1.55;;;;;;;;;;5029426;28;20120;-62
2021/09/17 11:31:08;;;;;;;3.28;1.38;;;;;;;;;;5029619;28;20029;-61
2021/09/17 11:33:34;;;;;;;3.15;1.65;;;;;;;;;;5024345;28;20037;-62
2021/09/17 11:35:59;;;;;;;2.25;1.60;;;;;;;;;;5029158;28;20029;-61
2021/09/17 11:38:24;;;;;;;2.93;1.40;;;;;;;;;;5021903;28;20025;-62
2021/09/17 11:40:54;;;;;;;4.28;1.42;;;;;;;;;;5029183;28;20262;-61
2021/09/17 11:43:19;;;;;;;3.28;1.60;;;;;;;;;;5023179;28;20448;-62
2021/09/17 11:45:46;;;;;;;2.50;1.48;;;;;;;;;;5019094;28;20040;-62
2021/09/17 11:48:17;;;;;;;1.95;1.58;;;;;;;;;;5032340;28;20298;-62
2021/09/17 11:50:42;;;;;;;2.95;1.77;;;;;;;;;;5019190;28;20026;-62
2021/09/17 11:53:08;;;;;;;3.08;1.77;;;;;;;;;;5013119;28;20041;-62
2021/09/17 11:55:33;;;;;;;2.20;1.40;;;;;;;;;;5017969;28;20025;-62
2021/09/17 11:57:58;;;;;;;2.20;1.63;;;;;;;;;;5019510;28;20241;-62
2021/09/17 12:00:24;;;;;;;2.90;2.13;;;;;;;;;;5021635;28;20616;-63
2021/09/17 12:02:52;;;;;;;3.58;1.70;;;;;;;;;;5018352;28;20020;-62
2021/09/17 12:05:18;;;;;;;2.53;1.50;;;;;;;;;;5013552;28;20123;-62
2021/09/17 12:07:44;;;;;;;2.47;1.80;;;;;;;;;;5027711;28;20029;-62
2021/09/17 12:10:11;;;;;;;2.22;1.38;;;;;;;;;;5020362;28;20029;-62
2021/09/17 12:12:38;;;;;;;3.40;1.48;;;;;;;;;;5027848;28;20400;-62
2021/09/17 12:15:04;;;;;;;2.67;1.92;;;;;;;;;;5027217;28;20029;-63
2021/09/17 12:17:29;;;;;;;2.60;1.88;;;;;;;;;;5024370;28;20032;-62
2021/09/17 12:20:05;;;;;;;2.88;1.60;;;;;;;;;;5026202;28;20022;-62
2021/09/17 12:22:32;;;;;;;2.30;1.55;;;;;;;;;;5028594;28;20100;-62
2021/09/17 12:25:16;;;;;;;3.05;1.60;;;;;;;;;;5027676;28;20030;-63
2021/09/17 12:27:46;;;;;;;2.45;1.50;;;;;;;;;;5023059;28;20036;-62
2021/09/17 12:30:11;;;;;;;2.88;1.40;;;;;;;;;;5022462;28;20032;-62
2021/09/17 12:32:38;;;;;;;3.13;1.50;;;;;;;;;;5025744;28;20025;-62
2021/09/17 12:35:05;;;;;;;4.00;1.60;;;;;;;;;;5026246;28;20053;-62
2021/09/17 12:37:30;;;;;;;2.72;1.80;;;;;;;;;;5024261;28;20025;-64
2021/09/17 12:40:11;;;;;;;2.73;1.63;;;;;;;;;;5029069;28;20049;-64
2021/09/17 12:42:36;;;;;;;2.08;1.60;;;;;;;;;;5029900;28;20300;-62
2021/09/17 12:45:02;;;;;;;2.63;1.35;;;;;;;;;;5028221;28;20083;-62
2021/09/17 12:47:28;;;;;;;2.15;1.58;;;;;;;;;;5022562;28;20034;-61
2021/09/17 12:50:06;;;;;;;2.22;1.50;;;;;;;;;;5030990;28;20373;-62
2021/09/17 12:52:35;;;;;;;2.22;1.63;;;;;;;;;;5027194;28;20469;-64
2021/09/17 12:55:00;;;;;;;2.20;1.52;;;;;;;;;;5032200;28;20041;-65
2021/09/17 12:57:26;;;;;;;2.57;1.40;;;;;;;;;;5032178;28;20515;-63
2021/09/17 12:59:58;;;;;;;2.70;1.40;;;;;;;;;;5030667;28;20272;-62
2021/09/17 13:02:23;;;;;;;3.78;1.60;;;;;;;;;;5026109;28;20101;-63
2021/09/17 13:04:58;;;;;;;3.00;1.60;;;;;;;;;;5031697;28;20152;-64
2021/09/17 13:07:24;;;;;;;3.88;1.48;;;;;;;;;;5025570;28;20792;-63
2021/09/17 13:09:49;;;;;;;3.85;1.60;;;;;;;;;;5031951;28;20025;-64
2021/09/17 13:12:14;;;;;;;3.13;1.23;;;;;;;;;;5031678;28;20116;-64
2021/09/17 13:14:39;;;;;;;3.83;1.48;;;;;;;;;;5031119;28;20303;-64
2021/09/17 13:17:04;;;;;;;2.13;1.43;;;;;;;;;;5030980;28;20023;-63
2021/09/17 13:19:29;;;;;;;2.20;1.10;;;;;;;;;;5031308;28;20280;-64
2021/09/17 13:21:55;;;;;;;2.40;1.80;;;;;;;;;;5029869;28;20920;-64
2021/09/17 13:24:20;;;;;;;3.95;2.55;;;;;;;;;;5027714;28;20029;-64
2021/09/17 13:26:45;;;;;;;4.17;2.17;;;;;;;;;;5023413;28;20026;-63
2021/09/17 13:29:10;;;;;;;3.13;1.97;;;;;;;;;;5028511;28;20292;-64
2021/09/17 13:31:37;;;;;;;5.70;2.40;;;;;;;;;;5031484;28;21151;-63
2021/09/17 13:34:02;;;;;;;3.80;2.60;;;;;;;;;;5028644;28;20809;-64
2021/09/17 13:36:27;;;;;;;3.53;1.90;;;;;;;;;;5025251;28;20029;-64
2021/09/17 13:38:52;;;;;;;4.10;2.27;;;;;;;;;;5023421;28;20350;-64
2021/09/17 13:41:17;;;;;;;2.90;2.30;;;;;;;;;;5021116;28;20296;-64
2021/09/17 13:43:43;;;;;;;3.33;2.20;;;;;;;;;;5022124;28;20622;-63
2021/09/17 13:46:08;;;;;;;3.53;2.60;;;;;;;;;;5026067;28;20279;-63
2021/09/17 13:48:33;;;;;;;3.75;2.22;;;;;;;;;;5023483;28;20382;-65
2021/09/17 13:50:58;;;;;;;3.50;2.87;;;;;;;;;;5025472;28;20044;-64
2021/09/17 13:53:23;;;;;;;3.20;2.20;;;;;;;;;;5018869;28;20283;-64
2021/09/17 13:55:49;;;;;;;6.60;2.13;;;;;;;;;;5021634;28;20028;-63
2021/09/17 13:58:15;;;;;;;3.40;2.20;;;;;;;;;;5027637;28;20268;-64
2021/09/17 14:00:40;;;;;;;2.72;2.00;;;;;;;;;;5031007;28;20036;-64
2021/09/17 14:03:05;;;;;;;4.83;1.90;;;;;;;;;;5021721;28;20009;-64
2021/09/17 14:05:30;;;;;;;1.92;1.50;;;;;;;;;;5030877;28;20272;-63
2021/09/17 14:07:56;;;;;;;2.20;1.55;;;;;;;;;;5024961;28;20097;-63
2021/09/17 14:10:21;;;;;;;2.40;1.95;;;;;;;;;;5029965;28;20120;-63
2021/09/17 14:12:46;;;;;;;2.50;1.80;;;;;;;;;;5030909;28;20021;-63
2021/09/17 14:15:12;;;;;;;2.83;1.80;;;;;;;;;;5030358;28;20378;-63
2021/09/17 14:17:37;;;;;;;2.33;1.80;;;;;;;;;;5028708;28;20202;-63
2021/09/17 14:20:02;;;;;;;2.70;1.60;;;;;;;;;;5014051;28;20092;-64
2021/09/17 14:22:28;;;;;;;3.45;1.55;;;;;;;;;;5027622;28;20024;-63
2021/09/17 14:24:53;;;;;;;4.00;1.47;;;;;;;;;;5030532;28;20036;-63
2021/09/17 14:27:18;;;;;;;3.78;1.85;;;;;;;;;;5030181;28;21011;-65
2021/09/17 14:29:46;;;;;;;2.47;1.70;;;;;;;;;;5027877;28;20033;-64
2021/09/17 14:32:12;;;;;;;2.85;1.98;;;;;;;;;;5024233;28;20033;-65
2021/09/17 14:34:37;;;;;;;2.10;1.70;;;;;;;;;;5027013;28;20037;-63